sensor_id;sensor_type;location;lat;lon;timestamp;P1;durP1;ratioP1;P2;durP2;ratioP2
60582;SDS011;46415;47.536;19.066;2022-08-05T00:02:44;5.30;;;4.80;;
60582;SDS011;46415;47.536;19.066;2022-08-05T00:05:53;5.25;;;4.75;;
60582;SDS011;46415;47.536;19.066;2022-08-05T00:09:16;5.60;;;5.07;;
60582;SDS011;46415;47.536;19.066;2022-08-05T00:12:21;6.80;;;4.95;;
60582;SDS011;46415;47.536;19.066;2022-08-05T00:15:24;5.57;;;4.65;;
60582;SDS011;46415;47.536;19.066;2022-08-05T00:18:47;6.65;;;4.87;;
60582;SDS011;46415;47.536;19.066;2022-08-05T00:21:51;5.53;;;5.03;;
60582;SDS011;46415;47.536;19.066;2022-08-05T00:24:55;4.97;;;4.57;;
60582;SDS011;46415;47.536;19.066;2022-08-05T00:27:57;5.47;;;4.70;;
60582;SDS011;46415;47.536;19.066;2022-08-05T00:31:02;5.00;;;4.60;;
60582;SDS011;46415;47.536;19.066;2022-08-05T00:34:08;6.07;;;4.90;;
60582;SDS011;46415;47.536;19.066;2022-08-05T00:37:31;4.90;;;4.50;;
60582;SDS011;46415;47.536;19.066;2022-08-05T00:40:55;5.25;;;4.70;;
60582;SDS011;46415;47.536;19.066;2022-08-05T00:44:01;5.25;;;4.65;;
60582;SDS011;46415;47.536;19.066;2022-08-05T00:47:04;6.22;;;4.53;;
60582;SDS011;46415;47.536;19.066;2022-08-05T00:50:07;5.03;;;4.53;;
60582;SDS011;46415;47.536;19.066;2022-08-05T00:53:11;5.28;;;4.55;;
60582;SDS011;46415;47.536;19.066;2022-08-05T00:56:34;4.80;;;4.40;;
60582;SDS011;46415;47.536;19.066;2022-08-05T00:59:39;4.95;;;4.55;;
60582;SDS011;46415;47.536;19.066;2022-08-05T01:02:46;5.12;;;4.68;;
60582;SDS011;46415;47.536;19.066;2022-08-05T01:05:51;6.57;;;4.32;;
60582;SDS011;46415;47.536;19.066;2022-08-05T01:08:56;6.12;;;4.47;;
60582;SDS011;46415;47.536;19.066;2022-08-05T01:12:01;5.00;;;4.50;;
60582;SDS011;46415;47.536;19.066;2022-08-05T01:15:21;4.82;;;4.45;;
60582;SDS011;46415;47.536;19.066;2022-08-05T01:18:39;5.10;;;4.60;;
60582;SDS011;46415;47.536;19.066;2022-08-05T01:29:04;6.37;;;5.20;;
60582;SDS011;46415;47.536;19.066;2022-08-05T01:32:15;5.18;;;4.68;;
60582;SDS011;46415;47.536;19.066;2022-08-05T01:35:24;5.07;;;4.70;;
60582;SDS011;46415;47.536;19.066;2022-08-05T01:38:51;5.18;;;4.78;;
60582;SDS011;46415;47.536;19.066;2022-08-05T01:41:54;5.60;;;5.00;;
60582;SDS011;46415;47.536;19.066;2022-08-05T01:44:59;6.97;;;5.25;;
60582;SDS011;46415;47.536;19.066;2022-08-05T01:48:04;6.10;;;5.35;;
60582;SDS011;46415;47.536;19.066;2022-08-05T01:51:11;5.40;;;4.80;;
60582;SDS011;46415;47.536;19.066;2022-08-05T01:54:18;5.75;;;5.25;;
60582;SDS011;46415;47.536;19.066;2022-08-05T01:57:29;6.03;;;4.75;;
60582;SDS011;46415;47.536;19.066;2022-08-05T02:00:54;5.20;;;4.80;;
60582;SDS011;46415;47.536;19.066;2022-08-05T02:04:00;5.40;;;4.90;;
60582;SDS011;46415;47.536;19.066;2022-08-05T02:07:04;5.45;;;4.93;;
60582;SDS011;46415;47.536;19.066;2022-08-05T02:10:09;6.80;;;4.62;;
60582;SDS011;46415;47.536;19.066;2022-08-05T02:13:29;6.25;;;5.10;;
60582;SDS011;46415;47.536;19.066;2022-08-05T02:16:55;5.07;;;4.65;;
60582;SDS011;46415;47.536;19.066;2022-08-05T02:20:06;4.87;;;4.47;;
60582;SDS011;46415;47.536;19.066;2022-08-05T02:23:12;10.10;;;5.62;;
60582;SDS011;46415;47.536;19.066;2022-08-05T02:26:26;5.60;;;4.43;;
60582;SDS011;46415;47.536;19.066;2022-08-05T02:29:53;5.40;;;4.90;;
60582;SDS011;46415;47.536;19.066;2022-08-05T02:33:01;5.20;;;4.72;;
60582;SDS011;46415;47.536;19.066;2022-08-05T02:36:09;5.32;;;4.82;;
60582;SDS011;46415;47.536;19.066;2022-08-05T02:39:17;4.95;;;4.55;;
60582;SDS011;46415;47.536;19.066;2022-08-05T02:42:23;6.45;;;4.40;;
60582;SDS011;46415;47.536;19.066;2022-08-05T02:45:29;4.82;;;4.37;;
60582;SDS011;46415;47.536;19.066;2022-08-05T02:48:54;4.82;;;4.35;;
60582;SDS011;46415;47.536;19.066;2022-08-05T02:51:58;4.57;;;4.18;;
60582;SDS011;46415;47.536;19.066;2022-08-05T02:55:06;5.20;;;4.70;;
60582;SDS011;46415;47.536;19.066;2022-08-05T02:58:13;5.68;;;4.40;;
60582;SDS011;46415;47.536;19.066;2022-08-05T03:01:24;4.85;;;4.45;;
60582;SDS011;46415;47.536;19.066;2022-08-05T03:04:29;5.30;;;4.82;;
60582;SDS011;46415;47.536;19.066;2022-08-05T03:07:32;5.10;;;4.70;;
60582;SDS011;46415;47.536;19.066;2022-08-05T03:10:56;4.50;;;4.20;;
60582;SDS011;46415;47.536;19.066;2022-08-05T03:14:19;4.55;;;4.15;;
60582;SDS011;46415;47.536;19.066;2022-08-05T03:17:22;5.15;;;4.15;;
60582;SDS011;46415;47.536;19.066;2022-08-05T03:20:26;5.45;;;4.65;;
60582;SDS011;46415;47.536;19.066;2022-08-05T03:23:29;4.85;;;4.40;;
60582;SDS011;46415;47.536;19.066;2022-08-05T03:26:36;5.18;;;4.30;;
60582;SDS011;46415;47.536;19.066;2022-08-05T03:29:39;5.25;;;4.75;;
60582;SDS011;46415;47.536;19.066;2022-08-05T03:33:03;4.82;;;4.50;;
60582;SDS011;46415;47.536;19.066;2022-08-05T03:36:07;5.22;;;4.72;;
60582;SDS011;46415;47.536;19.066;2022-08-05T03:39:13;5.22;;;4.82;;
60582;SDS011;46415;47.536;19.066;2022-08-05T03:42:28;5.00;;;4.43;;
60582;SDS011;46415;47.536;19.066;2022-08-05T03:45:43;5.60;;;4.60;;
60582;SDS011;46415;47.536;19.066;2022-08-05T03:49:00;5.35;;;4.75;;
60582;SDS011;46415;47.536;19.066;2022-08-05T03:52:05;5.75;;;5.10;;
60582;SDS011;46415;47.536;19.066;2022-08-05T03:55:34;6.25;;;4.90;;
60582;SDS011;46415;47.536;19.066;2022-08-05T03:59:02;5.37;;;4.87;;
60582;SDS011;46415;47.536;19.066;2022-08-05T04:05:19;7.15;;;5.28;;
60582;SDS011;46415;47.536;19.066;2022-08-05T04:08:24;6.03;;;5.07;;
60582;SDS011;46415;47.536;19.066;2022-08-05T04:11:38;5.70;;;5.15;;
60582;SDS011;46415;47.536;19.066;2022-08-05T04:14:53;5.82;;;4.95;;
60582;SDS011;46415;47.536;19.066;2022-08-05T04:18:03;5.45;;;4.82;;
60582;SDS011;46415;47.536;19.066;2022-08-05T04:21:09;5.00;;;4.60;;
60582;SDS011;46415;47.536;19.066;2022-08-05T04:24:12;5.25;;;4.72;;
60582;SDS011;46415;47.536;19.066;2022-08-05T04:27:24;7.82;;;5.12;;
60582;SDS011;46415;47.536;19.066;2022-08-05T04:30:44;7.75;;;5.40;;
60582;SDS011;46415;47.536;19.066;2022-08-05T04:33:47;5.80;;;5.25;;
60582;SDS011;46415;47.536;19.066;2022-08-05T04:37:10;5.68;;;5.05;;
60582;SDS011;46415;47.536;19.066;2022-08-05T04:40:13;5.78;;;5.20;;
60582;SDS011;46415;47.536;19.066;2022-08-05T04:43:20;5.45;;;5.00;;
60582;SDS011;46415;47.536;19.066;2022-08-05T04:46:23;7.18;;;5.20;;
60582;SDS011;46415;47.536;19.066;2022-08-05T04:49:30;6.35;;;4.97;;
60582;SDS011;46415;47.536;19.066;2022-08-05T04:52:52;8.68;;;5.22;;
60582;SDS011;46415;47.536;19.066;2022-08-05T04:55:55;5.32;;;4.30;;
60582;SDS011;46415;47.536;19.066;2022-08-05T04:59:18;5.93;;;5.10;;
60582;SDS011;46415;47.536;19.066;2022-08-05T05:02:40;5.07;;;4.68;;
60582;SDS011;46415;47.536;19.066;2022-08-05T05:05:44;5.12;;;4.62;;
60582;SDS011;46415;47.536;19.066;2022-08-05T05:09:08;7.10;;;4.15;;
60582;SDS011;46415;47.536;19.066;2022-08-05T05:12:18;4.53;;;4.07;;
60582;SDS011;46415;47.536;19.066;2022-08-05T05:15:26;5.50;;;4.15;;
60582;SDS011;46415;47.536;19.066;2022-08-05T05:18:49;4.60;;;3.90;;
60582;SDS011;46415;47.536;19.066;2022-08-05T05:22:11;4.40;;;3.83;;
60582;SDS011;46415;47.536;19.066;2022-08-05T05:25:26;5.00;;;4.20;;
60582;SDS011;46415;47.536;19.066;2022-08-05T05:28:42;4.18;;;3.80;;
60582;SDS011;46415;47.536;19.066;2022-08-05T05:31:46;5.93;;;4.45;;
60582;SDS011;46415;47.536;19.066;2022-08-05T05:34:49;7.80;;;4.10;;
60582;SDS011;46415;47.536;19.066;2022-08-05T05:37:55;5.30;;;4.00;;
60582;SDS011;46415;47.536;19.066;2022-08-05T05:41:03;4.47;;;4.07;;
60582;SDS011;46415;47.536;19.066;2022-08-05T05:44:08;4.93;;;4.37;;
60582;SDS011;46415;47.536;19.066;2022-08-05T05:47:31;4.50;;;4.10;;
60582;SDS011;46415;47.536;19.066;2022-08-05T05:50:56;5.20;;;3.85;;
60582;SDS011;46415;47.536;19.066;2022-08-05T05:54:01;5.32;;;3.80;;
60582;SDS011;46415;47.536;19.066;2022-08-05T05:57:04;4.53;;;4.03;;
60582;SDS011;46415;47.536;19.066;2022-08-05T06:00:16;4.95;;;3.90;;
60582;SDS011;46415;47.536;19.066;2022-08-05T06:03:20;5.65;;;3.95;;
60582;SDS011;46415;47.536;19.066;2022-08-05T06:06:43;6.87;;;4.10;;
60582;SDS011;46415;47.536;19.066;2022-08-05T06:09:50;5.28;;;4.28;;
60582;SDS011;46415;47.536;19.066;2022-08-05T06:13:05;7.32;;;3.97;;
60582;SDS011;46415;47.536;19.066;2022-08-05T06:16:09;9.57;;;4.70;;
60582;SDS011;46415;47.536;19.066;2022-08-05T06:19:31;4.65;;;4.10;;
60582;SDS011;46415;47.536;19.066;2022-08-05T06:22:36;7.40;;;3.92;;
60582;SDS011;46415;47.536;19.066;2022-08-05T06:25:41;5.12;;;4.37;;
60582;SDS011;46415;47.536;19.066;2022-08-05T06:29:04;15.93;;;4.47;;
60582;SDS011;46415;47.536;19.066;2022-08-05T06:32:27;4.60;;;4.20;;
60582;SDS011;46415;47.536;19.066;2022-08-05T06:35:30;9.23;;;4.30;;
60582;SDS011;46415;47.536;19.066;2022-08-05T06:38:53;5.65;;;4.15;;
60582;SDS011;46415;47.536;19.066;2022-08-05T06:41:57;4.82;;;3.92;;
60582;SDS011;46415;47.536;19.066;2022-08-05T06:45:05;8.25;;;4.07;;
60582;SDS011;46415;47.536;19.066;2022-08-05T06:48:10;4.97;;;3.90;;
60582;SDS011;46415;47.536;19.066;2022-08-05T06:51:32;5.20;;;3.70;;
60582;SDS011;46415;47.536;19.066;2022-08-05T06:54:37;8.10;;;4.37;;
60582;SDS011;46415;47.536;19.066;2022-08-05T06:57:40;4.57;;;3.90;;
60582;SDS011;46415;47.536;19.066;2022-08-05T07:01:03;7.93;;;4.75;;
60582;SDS011;46415;47.536;19.066;2022-08-05T07:04:07;10.32;;;5.00;;
60582;SDS011;46415;47.536;19.066;2022-08-05T07:07:11;8.88;;;4.40;;
60582;SDS011;46415;47.536;19.066;2022-08-05T07:10:16;7.18;;;3.97;;
60582;SDS011;46415;47.536;19.066;2022-08-05T07:13:22;5.70;;;4.07;;
60582;SDS011;46415;47.536;19.066;2022-08-05T07:17:00;4.95;;;3.65;;
60582;SDS011;46415;47.536;19.066;2022-08-05T07:20:23;6.43;;;4.35;;
60582;SDS011;46415;47.536;19.066;2022-08-05T07:23:40;4.65;;;3.65;;
60582;SDS011;46415;47.536;19.066;2022-08-05T07:26:51;5.15;;;4.03;;
60582;SDS011;46415;47.536;19.066;2022-08-05T07:29:56;3.60;;;3.30;;
60582;SDS011;46415;47.536;19.066;2022-08-05T07:33:19;3.65;;;3.35;;
60582;SDS011;46415;47.536;19.066;2022-08-05T07:36:38;6.72;;;3.30;;
60582;SDS011;46415;47.536;19.066;2022-08-05T07:39:42;5.32;;;3.75;;
60582;SDS011;46415;47.536;19.066;2022-08-05T07:43:05;6.62;;;3.37;;
60582;SDS011;46415;47.536;19.066;2022-08-05T07:46:26;3.83;;;3.10;;
60582;SDS011;46415;47.536;19.066;2022-08-05T07:49:32;3.15;;;2.95;;
60582;SDS011;46415;47.536;19.066;2022-08-05T07:52:45;5.97;;;3.53;;
60582;SDS011;46415;47.536;19.066;2022-08-05T07:55:48;6.10;;;3.28;;
60582;SDS011;46415;47.536;19.066;2022-08-05T07:59:11;3.55;;;3.22;;
60582;SDS011;46415;47.536;19.066;2022-08-05T08:02:15;3.12;;;2.80;;
60582;SDS011;46415;47.536;19.066;2022-08-05T08:05:19;5.03;;;2.50;;
60582;SDS011;46415;47.536;19.066;2022-08-05T08:08:22;5.40;;;3.03;;
60582;SDS011;46415;47.536;19.066;2022-08-05T08:11:27;4.37;;;2.92;;
60582;SDS011;46415;47.536;19.066;2022-08-05T08:14:50;3.92;;;3.22;;
60582;SDS011;46415;47.536;19.066;2022-08-05T08:17:53;5.53;;;2.90;;
60582;SDS011;46415;47.536;19.066;2022-08-05T08:21:03;6.28;;;3.47;;
60582;SDS011;46415;47.536;19.066;2022-08-05T08:24:17;4.62;;;3.15;;
60582;SDS011;46415;47.536;19.066;2022-08-05T08:27:21;4.57;;;2.90;;
60582;SDS011;46415;47.536;19.066;2022-08-05T08:30:37;4.65;;;3.22;;
60582;SDS011;46415;47.536;19.066;2022-08-05T08:33:51;3.03;;;2.70;;
60582;SDS011;46415;47.536;19.066;2022-08-05T08:36:54;3.25;;;2.92;;
60582;SDS011;46415;47.536;19.066;2022-08-05T08:40:06;3.30;;;2.95;;
60582;SDS011;46415;47.536;19.066;2022-08-05T08:43:10;4.47;;;3.00;;
60582;SDS011;46415;47.536;19.066;2022-08-05T08:46:37;3.42;;;3.00;;
60582;SDS011;46415;47.536;19.066;2022-08-05T08:49:43;4.93;;;2.70;;
60582;SDS011;46415;47.536;19.066;2022-08-05T08:53:06;3.45;;;3.15;;
60582;SDS011;46415;47.536;19.066;2022-08-05T08:56:13;3.45;;;3.15;;
60582;SDS011;46415;47.536;19.066;2022-08-05T08:59:17;3.92;;;3.10;;
60582;SDS011;46415;47.536;19.066;2022-08-05T09:02:22;3.25;;;2.95;;
60582;SDS011;46415;47.536;19.066;2022-08-05T09:05:28;3.58;;;2.75;;
60582;SDS011;46415;47.536;19.066;2022-08-05T09:08:50;3.50;;;3.00;;
60582;SDS011;46415;47.536;19.066;2022-08-05T09:11:53;4.30;;;2.95;;
60582;SDS011;46415;47.536;19.066;2022-08-05T09:15:07;3.90;;;2.80;;
60582;SDS011;46415;47.536;19.066;2022-08-05T09:18:10;3.37;;;3.00;;
60582;SDS011;46415;47.536;19.066;2022-08-05T09:21:14;3.40;;;3.10;;
60582;SDS011;46415;47.536;19.066;2022-08-05T09:27:35;5.68;;;3.28;;
60582;SDS011;46415;47.536;19.066;2022-08-05T09:31:05;5.37;;;3.20;;
60582;SDS011;46415;47.536;19.066;2022-08-05T09:37:49;5.57;;;3.58;;
60582;SDS011;46415;47.536;19.066;2022-08-05T09:41:16;4.65;;;3.22;;
60582;SDS011;46415;47.536;19.066;2022-08-05T09:44:39;3.03;;;2.80;;
60582;SDS011;46415;47.536;19.066;2022-08-05T09:47:43;5.28;;;3.10;;
60582;SDS011;46415;47.536;19.066;2022-08-05T09:50:57;3.90;;;3.00;;
60582;SDS011;46415;47.536;19.066;2022-08-05T09:54:03;3.55;;;3.10;;
60582;SDS011;46415;47.536;19.066;2022-08-05T09:57:10;3.92;;;3.00;;
60582;SDS011;46415;47.536;19.066;2022-08-05T10:00:36;3.87;;;3.10;;
60582;SDS011;46415;47.536;19.066;2022-08-05T10:03:39;3.40;;;3.10;;
60582;SDS011;46415;47.536;19.066;2022-08-05T10:07:00;3.87;;;2.78;;
60582;SDS011;46415;47.536;19.066;2022-08-05T10:10:26;3.25;;;3.03;;
60582;SDS011;46415;47.536;19.066;2022-08-05T10:13:39;3.58;;;3.25;;
60582;SDS011;46415;47.536;19.066;2022-08-05T10:16:51;4.15;;;2.87;;
60582;SDS011;46415;47.536;19.066;2022-08-05T10:19:54;5.55;;;3.15;;
60582;SDS011;46415;47.536;19.066;2022-08-05T10:23:12;3.05;;;2.85;;
60582;SDS011;46415;47.536;19.066;2022-08-05T10:26:41;3.00;;;2.80;;
60582;SDS011;46415;47.536;19.066;2022-08-05T10:29:53;4.93;;;3.10;;
60582;SDS011;46415;47.536;19.066;2022-08-05T10:33:16;5.43;;;3.17;;
60582;SDS011;46415;47.536;19.066;2022-08-05T10:36:20;3.33;;;3.03;;
60582;SDS011;46415;47.536;19.066;2022-08-05T10:39:28;4.12;;;3.33;;
60582;SDS011;46415;47.536;19.066;2022-08-05T10:42:57;3.17;;;2.97;;
60582;SDS011;46415;47.536;19.066;2022-08-05T10:46:07;4.07;;;3.10;;
60582;SDS011;46415;47.536;19.066;2022-08-05T10:49:13;3.28;;;3.00;;
60582;SDS011;46415;47.536;19.066;2022-08-05T10:52:36;4.65;;;3.47;;
60582;SDS011;46415;47.536;19.066;2022-08-05T10:56:01;3.42;;;2.67;;
60582;SDS011;46415;47.536;19.066;2022-08-05T10:59:26;3.87;;;2.80;;
60582;SDS011;46415;47.536;19.066;2022-08-05T11:06:27;6.10;;;3.30;;
60582;SDS011;46415;47.536;19.066;2022-08-05T11:09:36;3.12;;;2.90;;
60582;SDS011;46415;47.536;19.066;2022-08-05T11:12:48;4.15;;;2.90;;
60582;SDS011;46415;47.536;19.066;2022-08-05T11:16:19;3.85;;;2.97;;
60582;SDS011;46415;47.536;19.066;2022-08-05T11:19:45;3.10;;;2.80;;
60582;SDS011;46415;47.536;19.066;2022-08-05T11:26:35;3.37;;;2.80;;
60582;SDS011;46415;47.536;19.066;2022-08-05T11:29:39;5.00;;;2.72;;
60582;SDS011;46415;47.536;19.066;2022-08-05T11:32:42;3.33;;;3.00;;
60582;SDS011;46415;47.536;19.066;2022-08-05T11:39:09;4.00;;;3.20;;
60582;SDS011;46415;47.536;19.066;2022-08-05T11:42:15;3.60;;;3.30;;
60582;SDS011;46415;47.536;19.066;2022-08-05T11:45:19;3.20;;;3.00;;
60582;SDS011;46415;47.536;19.066;2022-08-05T11:48:42;3.72;;;3.10;;
60582;SDS011;46415;47.536;19.066;2022-08-05T11:51:49;3.17;;;2.90;;
60582;SDS011;46415;47.536;19.066;2022-08-05T11:54:54;4.55;;;2.95;;
60582;SDS011;46415;47.536;19.066;2022-08-05T11:57:59;3.85;;;3.15;;
60582;SDS011;46415;47.536;19.066;2022-08-05T12:01:14;4.20;;;3.30;;
60582;SDS011;46415;47.536;19.066;2022-08-05T12:04:24;3.30;;;3.10;;
60582;SDS011;46415;47.536;19.066;2022-08-05T12:07:32;3.33;;;3.08;;
60582;SDS011;46415;47.536;19.066;2022-08-05T12:10:57;2.87;;;2.67;;
60582;SDS011;46415;47.536;19.066;2022-08-05T12:14:07;3.40;;;2.95;;
60582;SDS011;46415;47.536;19.066;2022-08-05T12:17:12;3.17;;;2.97;;
60582;SDS011;46415;47.536;19.066;2022-08-05T12:20:36;4.32;;;3.20;;
60582;SDS011;46415;47.536;19.066;2022-08-05T12:23:50;5.22;;;3.20;;
60582;SDS011;46415;47.536;19.066;2022-08-05T12:26:54;4.22;;;2.92;;
60582;SDS011;46415;47.536;19.066;2022-08-05T12:29:59;3.75;;;3.22;;
60582;SDS011;46415;47.536;19.066;2022-08-05T12:33:05;3.95;;;2.87;;
60582;SDS011;46415;47.536;19.066;2022-08-05T12:36:28;3.80;;;3.25;;
60582;SDS011;46415;47.536;19.066;2022-08-05T12:39:32;3.15;;;2.95;;
60582;SDS011;46415;47.536;19.066;2022-08-05T12:42:40;4.05;;;3.12;;
60582;SDS011;46415;47.536;19.066;2022-08-05T12:45:49;5.90;;;2.90;;
60582;SDS011;46415;47.536;19.066;2022-08-05T12:48:57;3.17;;;2.97;;
60582;SDS011;46415;47.536;19.066;2022-08-05T12:52:10;3.58;;;3.08;;
60582;SDS011;46415;47.536;19.066;2022-08-05T12:55:29;3.30;;;3.10;;
60582;SDS011;46415;47.536;19.066;2022-08-05T12:58:34;3.85;;;3.20;;
60582;SDS011;46415;47.536;19.066;2022-08-05T13:01:56;5.10;;;3.10;;
60582;SDS011;46415;47.536;19.066;2022-08-05T13:05:09;3.25;;;3.05;;
60582;SDS011;46415;47.536;19.066;2022-08-05T13:08:16;3.60;;;3.30;;
60582;SDS011;46415;47.536;19.066;2022-08-05T13:11:20;4.68;;;3.10;;
60582;SDS011;46415;47.536;19.066;2022-08-05T13:14:45;3.67;;;3.03;;
60582;SDS011;46415;47.536;19.066;2022-08-05T13:18:08;3.05;;;2.85;;
60582;SDS011;46415;47.536;19.066;2022-08-05T13:21:12;3.05;;;2.85;;
60582;SDS011;46415;47.536;19.066;2022-08-05T13:24:15;5.22;;;2.90;;
60582;SDS011;46415;47.536;19.066;2022-08-05T13:27:40;3.60;;;2.95;;
60582;SDS011;46415;47.536;19.066;2022-08-05T13:30:44;2.75;;;2.55;;
60582;SDS011;46415;47.536;19.066;2022-08-05T13:33:49;3.45;;;3.15;;
60582;SDS011;46415;47.536;19.066;2022-08-05T13:37:12;3.22;;;2.90;;
60582;SDS011;46415;47.536;19.066;2022-08-05T13:40:23;3.33;;;3.10;;
60582;SDS011;46415;47.536;19.066;2022-08-05T13:43:45;3.33;;;2.80;;
60582;SDS011;46415;47.536;19.066;2022-08-05T13:46:56;4.25;;;2.95;;
60582;SDS011;46415;47.536;19.066;2022-08-05T13:50:10;9.68;;;3.05;;
60582;SDS011;46415;47.536;19.066;2022-08-05T13:53:18;4.72;;;3.00;;
60582;SDS011;46415;47.536;19.066;2022-08-05T13:56:20;4.35;;;2.80;;
60582;SDS011;46415;47.536;19.066;2022-08-05T13:59:23;5.80;;;3.17;;
60582;SDS011;46415;47.536;19.066;2022-08-05T14:02:28;3.37;;;3.17;;
60582;SDS011;46415;47.536;19.066;2022-08-05T14:05:34;3.10;;;2.90;;
60582;SDS011;46415;47.536;19.066;2022-08-05T14:08:57;3.25;;;2.95;;
60582;SDS011;46415;47.536;19.066;2022-08-05T14:12:01;3.67;;;2.75;;
60582;SDS011;46415;47.536;19.066;2022-08-05T14:15:24;3.83;;;2.97;;
60582;SDS011;46415;47.536;19.066;2022-08-05T14:18:47;5.47;;;3.33;;
60582;SDS011;46415;47.536;19.066;2022-08-05T14:21:50;3.30;;;2.90;;
60582;SDS011;46415;47.536;19.066;2022-08-05T14:25:13;4.00;;;3.15;;
60582;SDS011;46415;47.536;19.066;2022-08-05T14:28:23;2.90;;;2.70;;
60582;SDS011;46415;47.536;19.066;2022-08-05T14:31:29;4.75;;;3.08;;
60582;SDS011;46415;47.536;19.066;2022-08-05T14:34:52;2.92;;;2.72;;
60582;SDS011;46415;47.536;19.066;2022-08-05T14:37:58;6.20;;;3.17;;
60582;SDS011;46415;47.536;19.066;2022-08-05T14:41:02;3.50;;;3.10;;
60582;SDS011;46415;47.536;19.066;2022-08-05T14:44:09;3.15;;;2.83;;
60582;SDS011;46415;47.536;19.066;2022-08-05T14:47:23;5.00;;;2.83;;
60582;SDS011;46415;47.536;19.066;2022-08-05T14:50:46;3.05;;;2.85;;
60582;SDS011;46415;47.536;19.066;2022-08-05T14:53:50;2.75;;;2.60;;
60582;SDS011;46415;47.536;19.066;2022-08-05T14:57:13;3.58;;;2.80;;
60582;SDS011;46415;47.536;19.066;2022-08-05T15:00:16;5.15;;;3.08;;
60582;SDS011;46415;47.536;19.066;2022-08-05T15:03:21;4.03;;;2.83;;
60582;SDS011;46415;47.536;19.066;2022-08-05T15:06:24;3.00;;;2.67;;
60582;SDS011;46415;47.536;19.066;2022-08-05T15:09:31;3.20;;;3.00;;
60582;SDS011;46415;47.536;19.066;2022-08-05T15:12:54;4.43;;;3.10;;
60582;SDS011;46415;47.536;19.066;2022-08-05T15:16:05;4.03;;;3.05;;
60582;SDS011;46415;47.536;19.066;2022-08-05T15:19:12;2.95;;;2.75;;
60582;SDS011;46415;47.536;19.066;2022-08-05T15:22:25;9.80;;;3.10;;
60582;SDS011;46415;47.536;19.066;2022-08-05T15:25:29;3.08;;;2.80;;
60582;SDS011;46415;47.536;19.066;2022-08-05T15:28:52;3.95;;;2.65;;
60582;SDS011;46415;47.536;19.066;2022-08-05T15:31:55;4.90;;;3.45;;
60582;SDS011;46415;47.536;19.066;2022-08-05T15:34:57;2.90;;;2.70;;
60582;SDS011;46415;47.536;19.066;2022-08-05T15:38:11;5.68;;;3.12;;
60582;SDS011;46415;47.536;19.066;2022-08-05T15:41:34;5.45;;;3.10;;
60582;SDS011;46415;47.536;19.066;2022-08-05T15:44:56;3.42;;;3.12;;
60582;SDS011;46415;47.536;19.066;2022-08-05T15:47:59;3.45;;;3.25;;
60582;SDS011;46415;47.536;19.066;2022-08-05T15:51:03;3.33;;;3.10;;
60582;SDS011;46415;47.536;19.066;2022-08-05T15:54:07;3.80;;;3.50;;
60582;SDS011;46415;47.536;19.066;2022-08-05T15:57:16;3.92;;;3.62;;
60582;SDS011;46415;47.536;19.066;2022-08-05T16:00:19;4.60;;;3.50;;
60582;SDS011;46415;47.536;19.066;2022-08-05T16:03:42;3.83;;;3.53;;
60582;SDS011;46415;47.536;19.066;2022-08-05T16:06:44;4.05;;;3.67;;
60582;SDS011;46415;47.536;19.066;2022-08-05T16:09:47;4.10;;;3.80;;
60582;SDS011;46415;47.536;19.066;2022-08-05T16:12:50;4.80;;;4.32;;
60582;SDS011;46415;47.536;19.066;2022-08-05T16:15:53;3.92;;;3.72;;
60582;SDS011;46415;47.536;19.066;2022-08-05T16:18:56;4.32;;;4.03;;
60582;SDS011;46415;47.536;19.066;2022-08-05T16:25:04;4.00;;;3.70;;
60582;SDS011;46415;47.536;19.066;2022-08-05T16:28:11;3.60;;;3.30;;
60582;SDS011;46415;47.536;19.066;2022-08-05T16:31:16;3.10;;;3.00;;
60582;SDS011;46415;47.536;19.066;2022-08-05T16:34:21;3.12;;;2.92;;
60582;SDS011;46415;47.536;19.066;2022-08-05T16:37:25;2.70;;;2.60;;
60582;SDS011;46415;47.536;19.066;2022-08-05T16:40:48;2.90;;;2.67;;
60582;SDS011;46415;47.536;19.066;2022-08-05T16:44:01;3.08;;;2.80;;
60582;SDS011;46415;47.536;19.066;2022-08-05T16:47:04;2.78;;;2.58;;
60582;SDS011;46415;47.536;19.066;2022-08-05T16:50:28;4.28;;;3.05;;
60582;SDS011;46415;47.536;19.066;2022-08-05T16:54:06;4.47;;;3.05;;
60582;SDS011;46415;47.536;19.066;2022-08-05T16:57:25;3.35;;;2.75;;
60582;SDS011;46415;47.536;19.066;2022-08-05T17:00:50;2.70;;;2.45;;
60582;SDS011;46415;47.536;19.066;2022-08-05T17:03:52;3.47;;;2.92;;
60582;SDS011;46415;47.536;19.066;2022-08-05T17:06:56;2.92;;;2.72;;
60582;SDS011;46415;47.536;19.066;2022-08-05T17:10:09;2.83;;;2.62;;
60582;SDS011;46415;47.536;19.066;2022-08-05T17:13:12;3.28;;;2.92;;
60582;SDS011;46415;47.536;19.066;2022-08-05T17:16:22;3.35;;;3.00;;
60582;SDS011;46415;47.536;19.066;2022-08-05T17:19:35;3.17;;;2.53;;
60582;SDS011;46415;47.536;19.066;2022-08-05T17:22:37;2.97;;;2.67;;
60582;SDS011;46415;47.536;19.066;2022-08-05T17:25:40;3.03;;;2.80;;
60582;SDS011;46415;47.536;19.066;2022-08-05T17:28:43;3.40;;;3.20;;
60582;SDS011;46415;47.536;19.066;2022-08-05T17:31:48;3.70;;;3.40;;
60582;SDS011;46415;47.536;19.066;2022-08-05T17:35:00;2.85;;;2.65;;
60582;SDS011;46415;47.536;19.066;2022-08-05T17:38:07;4.10;;;3.20;;
60582;SDS011;46415;47.536;19.066;2022-08-05T17:41:11;3.12;;;2.90;;
60582;SDS011;46415;47.536;19.066;2022-08-05T17:44:34;4.03;;;3.30;;
60582;SDS011;46415;47.536;19.066;2022-08-05T17:47:37;6.15;;;3.17;;
60582;SDS011;46415;47.536;19.066;2022-08-05T17:50:41;4.57;;;2.95;;
60582;SDS011;46415;47.536;19.066;2022-08-05T17:53:43;3.67;;;3.37;;
60582;SDS011;46415;47.536;19.066;2022-08-05T17:56:55;3.60;;;3.30;;
60582;SDS011;46415;47.536;19.066;2022-08-05T18:00:00;3.35;;;3.05;;
60582;SDS011;46415;47.536;19.066;2022-08-05T18:03:09;3.37;;;3.08;;
60582;SDS011;46415;47.536;19.066;2022-08-05T18:06:12;3.33;;;3.05;;
60582;SDS011;46415;47.536;19.066;2022-08-05T18:09:17;3.33;;;3.12;;
60582;SDS011;46415;47.536;19.066;2022-08-05T18:12:19;4.03;;;3.55;;
60582;SDS011;46415;47.536;19.066;2022-08-05T18:15:25;3.58;;;3.28;;
60582;SDS011;46415;47.536;19.066;2022-08-05T18:18:32;6.07;;;3.30;;
60582;SDS011;46415;47.536;19.066;2022-08-05T18:21:41;3.28;;;2.97;;
60582;SDS011;46415;47.536;19.066;2022-08-05T18:25:04;4.15;;;3.55;;
60582;SDS011;46415;47.536;19.066;2022-08-05T18:28:08;4.10;;;3.28;;
60582;SDS011;46415;47.536;19.066;2022-08-05T18:31:11;3.92;;;3.53;;
60582;SDS011;46415;47.536;19.066;2022-08-05T18:34:17;4.60;;;3.37;;
60582;SDS011;46415;47.536;19.066;2022-08-05T18:37:23;4.82;;;3.50;;
60582;SDS011;46415;47.536;19.066;2022-08-05T18:40:41;6.68;;;3.30;;
60582;SDS011;46415;47.536;19.066;2022-08-05T18:44:05;4.45;;;3.40;;
60582;SDS011;46415;47.536;19.066;2022-08-05T18:47:10;5.47;;;3.30;;
60582;SDS011;46415;47.536;19.066;2022-08-05T18:50:13;4.30;;;3.78;;
60582;SDS011;46415;47.536;19.066;2022-08-05T18:53:48;7.93;;;3.70;;
60582;SDS011;46415;47.536;19.066;2022-08-05T18:56:51;5.53;;;3.62;;
60582;SDS011;46415;47.536;19.066;2022-08-05T18:59:55;7.25;;;3.83;;
60582;SDS011;46415;47.536;19.066;2022-08-05T19:03:08;7.32;;;4.00;;
60582;SDS011;46415;47.536;19.066;2022-08-05T19:06:14;4.25;;;3.65;;
60582;SDS011;46415;47.536;19.066;2022-08-05T19:09:23;7.37;;;3.85;;
60582;SDS011;46415;47.536;19.066;2022-08-05T19:12:26;9.05;;;4.07;;
60582;SDS011;46415;47.536;19.066;2022-08-05T19:15:33;6.90;;;4.10;;
60582;SDS011;46415;47.536;19.066;2022-08-05T19:18:56;6.47;;;3.95;;
60582;SDS011;46415;47.536;19.066;2022-08-05T19:21:59;7.43;;;4.10;;
60582;SDS011;46415;47.536;19.066;2022-08-05T19:25:02;6.50;;;3.78;;